Aylor, VA

5:58 AM EDT on September 20, 2014 (GMT -0400)
Early Mountain Vineyard | Change Station
CLOSE
Current Station
Personal Weather Station
Location: Madison, VA
Elevation: 677 ft
Nearby Weather Stations

Elev 677 ft 38.35 °N, 78.31 °W | Updated 13 minutes ago

Mostly Cloudy
Mostly Cloudy
58.9 °F
Feels Like 58.9 °F
N
0.0
Wind Variable Wind from NNW
Gusts 0.0 mph

Today
High -- | Low -- °F
--% Chance of Precip.
Yesterday
High -- | Low -- °F
Precip. -- in
6:59 AM 7:13 PM
Waning Crescent, 13% visible
Pressure 30.28 in
Visibility 7.0 miles
Clouds Clear
Dew Point 58 °F
Humidity 97%
Rainfall 0.00 in
Snow Depth Not available.
UV 0 out of 12
Pollen 4.00 out of 12
Air Quality Not available.
Flu Activity Not available.
METAR KOMH 200935Z AUTO 00000KT 7SM CLR 13/13 A3028 RMK AO2

More Conditions Fewer Conditions

Pressure 30.28 in
Visibility 7.0 miles
Clouds Clear
Dew Point 58 °F
Humidity 97%
Rainfall 0.00 in
Snow Depth Not available.
UV 0 out of 12
Pollen 4.00 out of 12
Air Quality Not available.
Flu Activity Not available.
METAR KOMH 200935Z AUTO 00000KT 7SM CLR 13/13 A3028 RMK AO2

More Conditions Fewer Conditions

10-Day Weather Forecast

Almanac

Astronomy

Sep. 20, 2014 Rise Set
Actual Time 6:59 AM EDT 7:13 PM EDT
Civil Twilight 6:32 AM EDT 7:39 PM EDT
Nautical Twilight 6:01 AM EDT 8:10 PM EDT
Astronomical Twilight 5:30 AM EDT 8:42 PM EDT
Moon 3:38 AM EDT 5:14 PM EDT
Length of Visible Light 13h 07m
Length of Day
12h 14m
Tomorrow will be 2m 28s shorter.
Waning Crescent, 13% of the Moon is Illuminated
Today
Waning Crescent
Sep 24
New
Oct 1
First Quarter
Oct 8
Full
Oct 15
Last Quarter

Today's Extremes

State Highs State Lows

Community

WunderPhotos

Upload Photos

1,754,794 photos uploaded!

WunderBlogs® & News

Nearby

Snow Depth

Station Depth Elevation
No new snow has been reported.

Earthquake Activity

City Distance Mag. Time & Date
No recent earthquake activity has been reported nearby.
Minimum magnitude displayed is 2.5.

Coastal Water Temperatures

Place Temperature
No Stations Reporting

Nearby Weather Stations